sensor_id;sensor_type;location;lat;lon;timestamp;P1;durP1;ratioP1;P2;durP2;ratioP2
23782;SDS011;12071;50.850;4.446;2022-11-04T00:01:47;9.75;;;1.60;;
23782;SDS011;12071;50.850;4.446;2022-11-04T00:04:15;5.70;;;1.70;;
23782;SDS011;12071;50.850;4.446;2022-11-04T00:06:41;6.78;;;1.77;;
23782;SDS011;12071;50.850;4.446;2022-11-04T00:09:09;8.93;;;1.73;;
23782;SDS011;12071;50.850;4.446;2022-11-04T00:11:36;5.40;;;1.80;;
23782;SDS011;12071;50.850;4.446;2022-11-04T00:14:20;7.32;;;1.50;;
23782;SDS011;12071;50.850;4.446;2022-11-04T00:16:46;5.50;;;1.42;;
23782;SDS011;12071;50.850;4.446;2022-11-04T00:19:30;5.80;;;1.67;;
23782;SDS011;12071;50.850;4.446;2022-11-04T00:22:15;7.72;;;1.40;;
23782;SDS011;12071;50.850;4.446;2022-11-04T00:25:13;8.43;;;1.55;;
23782;SDS011;12071;50.850;4.446;2022-11-04T00:28:05;9.38;;;2.55;;
23782;SDS011;12071;50.850;4.446;2022-11-04T00:30:53;5.70;;;1.58;;
23782;SDS011;12071;50.850;4.446;2022-11-04T00:33:20;6.90;;;1.60;;
23782;SDS011;12071;50.850;4.446;2022-11-04T00:35:53;6.60;;;1.65;;
23782;SDS011;12071;50.850;4.446;2022-11-04T00:38:21;7.60;;;1.48;;
23782;SDS011;12071;50.850;4.446;2022-11-04T00:40:47;6.18;;;1.60;;
23782;SDS011;12071;50.850;4.446;2022-11-04T00:43:13;6.00;;;1.70;;
23782;SDS011;12071;50.850;4.446;2022-11-04T00:45:41;6.75;;;1.60;;
23782;SDS011;12071;50.850;4.446;2022-11-04T00:48:07;9.68;;;1.40;;
23782;SDS011;12071;50.850;4.446;2022-11-04T00:50:33;6.95;;;1.40;;
23782;SDS011;12071;50.850;4.446;2022-11-04T00:52:59;6.90;;;1.50;;
23782;SDS011;12071;50.850;4.446;2022-11-04T00:55:25;10.82;;;1.92;;
23782;SDS011;12071;50.850;4.446;2022-11-04T00:57:50;11.75;;;2.33;;
23782;SDS011;12071;50.850;4.446;2022-11-04T01:00:16;8.85;;;1.30;;
23782;SDS011;12071;50.850;4.446;2022-11-04T01:02:42;10.90;;;1.95;;
23782;SDS011;12071;50.850;4.446;2022-11-04T01:05:08;10.30;;;1.65;;
23782;SDS011;12071;50.850;4.446;2022-11-04T01:07:33;9.20;;;1.85;;
23782;SDS011;12071;50.850;4.446;2022-11-04T01:09:59;8.27;;;1.70;;
23782;SDS011;12071;50.850;4.446;2022-11-04T01:12:25;12.13;;;1.98;;
23782;SDS011;12071;50.850;4.446;2022-11-04T01:14:50;6.95;;;1.60;;
23782;SDS011;12071;50.850;4.446;2022-11-04T01:17:16;12.00;;;2.28;;
23782;SDS011;12071;50.850;4.446;2022-11-04T01:19:42;9.82;;;1.48;;
23782;SDS011;12071;50.850;4.446;2022-11-04T01:22:08;10.98;;;1.80;;
23782;SDS011;12071;50.850;4.446;2022-11-04T01:24:34;5.28;;;1.40;;
23782;SDS011;12071;50.850;4.446;2022-11-04T01:26:59;13.63;;;2.10;;
23782;SDS011;12071;50.850;4.446;2022-11-04T01:29:25;9.15;;;1.50;;
23782;SDS011;12071;50.850;4.446;2022-11-04T01:31:50;11.60;;;2.13;;
23782;SDS011;12071;50.850;4.446;2022-11-04T01:34:16;11.38;;;2.10;;
23782;SDS011;12071;50.850;4.446;2022-11-04T01:36:42;8.27;;;1.73;;
23782;SDS011;12071;50.850;4.446;2022-11-04T01:39:08;8.45;;;1.80;;
23782;SDS011;12071;50.850;4.446;2022-11-04T01:41:33;10.40;;;1.60;;
23782;SDS011;12071;50.850;4.446;2022-11-04T01:44:44;10.93;;;1.60;;
23782;SDS011;12071;50.850;4.446;2022-11-04T01:47:16;9.57;;;1.98;;
23782;SDS011;12071;50.850;4.446;2022-11-04T01:49:46;7.95;;;1.63;;
23782;SDS011;12071;50.850;4.446;2022-11-04T01:52:17;9.68;;;1.58;;
23782;SDS011;12071;50.850;4.446;2022-11-04T01:54:47;10.73;;;1.60;;
23782;SDS011;12071;50.850;4.446;2022-11-04T01:57:16;9.25;;;1.50;;
23782;SDS011;12071;50.850;4.446;2022-11-04T01:59:45;9.02;;;1.92;;
23782;SDS011;12071;50.850;4.446;2022-11-04T02:02:11;10.30;;;1.75;;
23782;SDS011;12071;50.850;4.446;2022-11-04T02:04:37;11.05;;;2.15;;
23782;SDS011;12071;50.850;4.446;2022-11-04T02:07:04;8.90;;;1.70;;
23782;SDS011;12071;50.850;4.446;2022-11-04T02:09:32;11.65;;;2.00;;
23782;SDS011;12071;50.850;4.446;2022-11-04T02:11:59;7.35;;;1.58;;
23782;SDS011;12071;50.850;4.446;2022-11-04T02:14:44;9.10;;;1.88;;
23782;SDS011;12071;50.850;4.446;2022-11-04T02:30:47;11.15;;;2.22;;
23782;SDS011;12071;50.850;4.446;2022-11-04T02:33:18;11.85;;;2.40;;
23782;SDS011;12071;50.850;4.446;2022-11-04T02:36:01;11.60;;;2.40;;
23782;SDS011;12071;50.850;4.446;2022-11-04T02:41:09;11.23;;;2.53;;
23782;SDS011;12071;50.850;4.446;2022-11-04T02:46:34;11.95;;;2.53;;
23782;SDS011;12071;50.850;4.446;2022-11-04T02:50:04;10.27;;;2.33;;
23782;SDS011;12071;50.850;4.446;2022-11-04T02:52:06;14.32;;;2.45;;
23782;SDS011;12071;50.850;4.446;2022-11-04T02:54:48;9.68;;;2.20;;
23782;SDS011;12071;50.850;4.446;2022-11-04T02:57:21;11.30;;;2.50;;
23782;SDS011;12071;50.850;4.446;2022-11-04T02:59:52;10.85;;;3.53;;
23782;SDS011;12071;50.850;4.446;2022-11-04T03:02:38;12.30;;;2.83;;
23782;SDS011;12071;50.850;4.446;2022-11-04T03:05:11;9.18;;;2.42;;
23782;SDS011;12071;50.850;4.446;2022-11-04T03:07:40;13.30;;;3.25;;
23782;SDS011;12071;50.850;4.446;2022-11-04T03:10:10;12.48;;;3.28;;
23782;SDS011;12071;50.850;4.446;2022-11-04T03:12:41;13.75;;;3.10;;
23782;SDS011;12071;50.850;4.446;2022-11-04T03:15:14;7.53;;;2.42;;
23782;SDS011;12071;50.850;4.446;2022-11-04T03:18:00;11.15;;;2.65;;
23782;SDS011;12071;50.850;4.446;2022-11-04T03:20:37;9.23;;;2.47;;
23782;SDS011;12071;50.850;4.446;2022-11-04T03:23:04;8.52;;;2.45;;
23782;SDS011;12071;50.850;4.446;2022-11-04T03:25:37;11.82;;;2.70;;
23782;SDS011;12071;50.850;4.446;2022-11-04T03:30:43;13.23;;;2.83;;
23782;SDS011;12071;50.850;4.446;2022-11-04T03:36:11;10.55;;;2.97;;
23782;SDS011;12071;50.850;4.446;2022-11-04T03:38:37;13.55;;;2.83;;
23782;SDS011;12071;50.850;4.446;2022-11-04T03:41:05;12.30;;;3.22;;
23782;SDS011;12071;50.850;4.446;2022-11-04T03:43:37;14.18;;;3.55;;
23782;SDS011;12071;50.850;4.446;2022-11-04T03:46:05;7.93;;;2.75;;
23782;SDS011;12071;50.850;4.446;2022-11-04T03:48:30;11.90;;;2.92;;
23782;SDS011;12071;50.850;4.446;2022-11-04T03:50:57;13.32;;;2.90;;
23782;SDS011;12071;50.850;4.446;2022-11-04T03:53:23;7.50;;;2.38;;
23782;SDS011;12071;50.850;4.446;2022-11-04T03:58:41;12.30;;;2.88;;
23782;SDS011;12071;50.850;4.446;2022-11-04T04:04:19;12.07;;;2.25;;
23782;SDS011;12071;50.850;4.446;2022-11-04T04:06:52;11.10;;;2.78;;
23782;SDS011;12071;50.850;4.446;2022-11-04T04:09:24;8.57;;;2.60;;
23782;SDS011;12071;50.850;4.446;2022-11-04T04:14:38;13.88;;;2.78;;
23782;SDS011;12071;50.850;4.446;2022-11-04T04:19:39;17.23;;;2.70;;
23782;SDS011;12071;50.850;4.446;2022-11-04T04:22:11;9.38;;;2.33;;
23782;SDS011;12071;50.850;4.446;2022-11-04T04:24:43;9.75;;;2.30;;
23782;SDS011;12071;50.850;4.446;2022-11-04T04:27:29;15.82;;;2.75;;
23782;SDS011;12071;50.850;4.446;2022-11-04T04:29:57;7.40;;;2.60;;
23782;SDS011;12071;50.850;4.446;2022-11-04T04:32:31;9.35;;;2.20;;
23782;SDS011;12071;50.850;4.446;2022-11-04T04:35:01;7.18;;;1.80;;
23782;SDS011;12071;50.850;4.446;2022-11-04T04:37:45;10.18;;;2.10;;
23782;SDS011;12071;50.850;4.446;2022-11-04T04:40:14;10.30;;;2.38;;
23782;SDS011;12071;50.850;4.446;2022-11-04T04:43:01;8.98;;;2.25;;
23782;SDS011;12071;50.850;4.446;2022-11-04T04:45:49;12.07;;;2.35;;
23782;SDS011;12071;50.850;4.446;2022-11-04T04:48:17;12.95;;;2.55;;
23782;SDS011;12071;50.850;4.446;2022-11-04T04:50:45;10.10;;;2.72;;
23782;SDS011;12071;50.850;4.446;2022-11-04T04:53:13;8.77;;;2.30;;
23782;SDS011;12071;50.850;4.446;2022-11-04T04:55:39;9.75;;;2.20;;
23782;SDS011;12071;50.850;4.446;2022-11-04T04:58:05;10.88;;;2.10;;
23782;SDS011;12071;50.850;4.446;2022-11-04T05:00:30;10.10;;;2.38;;
23782;SDS011;12071;50.850;4.446;2022-11-04T05:02:57;9.20;;;2.10;;
23782;SDS011;12071;50.850;4.446;2022-11-04T05:05:23;10.48;;;2.00;;
23782;SDS011;12071;50.850;4.446;2022-11-04T05:07:49;17.55;;;2.97;;
23782;SDS011;12071;50.850;4.446;2022-11-04T05:10:15;6.65;;;2.80;;
23782;SDS011;12071;50.850;4.446;2022-11-04T05:12:42;11.00;;;2.20;;
23782;SDS011;12071;50.850;4.446;2022-11-04T05:15:26;10.50;;;2.38;;
23782;SDS011;12071;50.850;4.446;2022-11-04T05:17:53;10.63;;;2.33;;
23782;SDS011;12071;50.850;4.446;2022-11-04T05:20:20;9.93;;;2.42;;
23782;SDS011;12071;50.850;4.446;2022-11-04T05:22:45;14.35;;;2.65;;
23782;SDS011;12071;50.850;4.446;2022-11-04T05:25:11;10.32;;;2.38;;
23782;SDS011;12071;50.850;4.446;2022-11-04T05:27:36;10.32;;;2.17;;
23782;SDS011;12071;50.850;4.446;2022-11-04T05:30:02;11.90;;;2.78;;
23782;SDS011;12071;50.850;4.446;2022-11-04T05:32:28;11.15;;;2.55;;
23782;SDS011;12071;50.850;4.446;2022-11-04T05:34:58;9.95;;;2.85;;
23782;SDS011;12071;50.850;4.446;2022-11-04T05:37:24;12.90;;;2.90;;
23782;SDS011;12071;50.850;4.446;2022-11-04T05:39:50;12.15;;;2.85;;
23782;SDS011;12071;50.850;4.446;2022-11-04T05:42:16;7.35;;;2.42;;
23782;SDS011;12071;50.850;4.446;2022-11-04T05:44:41;13.70;;;3.67;;
23782;SDS011;12071;50.850;4.446;2022-11-04T05:47:07;11.90;;;4.10;;
23782;SDS011;12071;50.850;4.446;2022-11-04T05:49:32;15.98;;;3.17;;
23782;SDS011;12071;50.850;4.446;2022-11-04T05:51:58;12.88;;;2.95;;
23782;SDS011;12071;50.850;4.446;2022-11-04T05:54:24;13.30;;;2.97;;
23782;SDS011;12071;50.850;4.446;2022-11-04T05:56:50;15.07;;;3.20;;
23782;SDS011;12071;50.850;4.446;2022-11-04T05:59:16;15.02;;;2.85;;
23782;SDS011;12071;50.850;4.446;2022-11-04T06:01:42;10.88;;;2.95;;
23782;SDS011;12071;50.850;4.446;2022-11-04T06:04:08;9.20;;;3.60;;
23782;SDS011;12071;50.850;4.446;2022-11-04T06:06:38;11.57;;;2.93;;
23782;SDS011;12071;50.850;4.446;2022-11-04T06:09:04;9.82;;;2.53;;
23782;SDS011;12071;50.850;4.446;2022-11-04T06:11:29;12.55;;;3.35;;
23782;SDS011;12071;50.850;4.446;2022-11-04T06:13:55;15.65;;;3.08;;
23782;SDS011;12071;50.850;4.446;2022-11-04T06:16:21;14.73;;;3.17;;
23782;SDS011;12071;50.850;4.446;2022-11-04T06:18:48;13.85;;;3.00;;
23782;SDS011;12071;50.850;4.446;2022-11-04T06:23:42;10.10;;;3.25;;
23782;SDS011;12071;50.850;4.446;2022-11-04T06:26:08;16.05;;;3.25;;
23782;SDS011;12071;50.850;4.446;2022-11-04T06:28:34;19.27;;;4.13;;
23782;SDS011;12071;50.850;4.446;2022-11-04T06:31:02;12.48;;;3.65;;
23782;SDS011;12071;50.850;4.446;2022-11-04T06:33:28;10.30;;;3.00;;
23782;SDS011;12071;50.850;4.446;2022-11-04T06:35:58;9.25;;;3.15;;
23782;SDS011;12071;50.850;4.446;2022-11-04T06:38:24;10.82;;;3.28;;
23782;SDS011;12071;50.850;4.446;2022-11-04T06:40:50;16.88;;;4.00;;
23782;SDS011;12071;50.850;4.446;2022-11-04T06:43:16;12.75;;;3.40;;
23782;SDS011;12071;50.850;4.446;2022-11-04T06:45:41;13.77;;;3.03;;
23782;SDS011;12071;50.850;4.446;2022-11-04T06:48:07;10.75;;;3.13;;
23782;SDS011;12071;50.850;4.446;2022-11-04T06:50:32;12.63;;;3.28;;
23782;SDS011;12071;50.850;4.446;2022-11-04T06:52:58;11.68;;;3.10;;
23782;SDS011;12071;50.850;4.446;2022-11-04T06:55:24;13.77;;;3.42;;
23782;SDS011;12071;50.850;4.446;2022-11-04T06:57:50;14.75;;;3.30;;
23782;SDS011;12071;50.850;4.446;2022-11-04T07:00:15;16.88;;;3.00;;
23782;SDS011;12071;50.850;4.446;2022-11-04T07:02:42;7.30;;;2.47;;
23782;SDS011;12071;50.850;4.446;2022-11-04T07:05:07;8.50;;;2.60;;
23782;SDS011;12071;50.850;4.446;2022-11-04T07:07:33;8.63;;;2.97;;
23782;SDS011;12071;50.850;4.446;2022-11-04T07:09:58;9.77;;;2.63;;
23782;SDS011;12071;50.850;4.446;2022-11-04T07:12:24;14.05;;;3.10;;
23782;SDS011;12071;50.850;4.446;2022-11-04T07:14:50;9.48;;;2.90;;
23782;SDS011;12071;50.850;4.446;2022-11-04T07:17:16;11.38;;;2.53;;
23782;SDS011;12071;50.850;4.446;2022-11-04T07:19:42;9.82;;;2.55;;
23782;SDS011;12071;50.850;4.446;2022-11-04T07:22:07;12.73;;;2.92;;
23782;SDS011;12071;50.850;4.446;2022-11-04T07:24:33;10.23;;;3.20;;
23782;SDS011;12071;50.850;4.446;2022-11-04T07:26:59;13.18;;;3.22;;
23782;SDS011;12071;50.850;4.446;2022-11-04T07:29:25;9.10;;;3.33;;
23782;SDS011;12071;50.850;4.446;2022-11-04T07:31:50;13.45;;;3.47;;
23782;SDS011;12071;50.850;4.446;2022-11-04T07:34:16;12.55;;;3.83;;
23782;SDS011;12071;50.850;4.446;2022-11-04T07:36:42;13.88;;;3.97;;
23782;SDS011;12071;50.850;4.446;2022-11-04T07:39:07;16.27;;;3.88;;
23782;SDS011;12071;50.850;4.446;2022-11-04T07:41:33;13.95;;;3.47;;
23782;SDS011;12071;50.850;4.446;2022-11-04T07:43:59;12.68;;;3.40;;
23782;SDS011;12071;50.850;4.446;2022-11-04T07:46:29;11.77;;;3.35;;
23782;SDS011;12071;50.850;4.446;2022-11-04T07:48:56;13.48;;;3.35;;
23782;SDS011;12071;50.850;4.446;2022-11-04T07:51:22;11.25;;;3.60;;
23782;SDS011;12071;50.850;4.446;2022-11-04T07:53:49;11.20;;;3.03;;
23782;SDS011;12071;50.850;4.446;2022-11-04T07:56:15;11.68;;;3.13;;
23782;SDS011;12071;50.850;4.446;2022-11-04T07:58:42;8.32;;;2.80;;
23782;SDS011;12071;50.850;4.446;2022-11-04T08:01:10;11.55;;;3.38;;
23782;SDS011;12071;50.850;4.446;2022-11-04T08:03:38;10.82;;;3.42;;
23782;SDS011;12071;50.850;4.446;2022-11-04T08:06:04;8.23;;;3.00;;
23782;SDS011;12071;50.850;4.446;2022-11-04T08:08:32;9.38;;;3.13;;
23782;SDS011;12071;50.850;4.446;2022-11-04T08:10:59;15.57;;;3.67;;
23782;SDS011;12071;50.850;4.446;2022-11-04T08:13:27;9.75;;;2.90;;
23782;SDS011;12071;50.850;4.446;2022-11-04T08:15:56;13.25;;;3.40;;
23782;SDS011;12071;50.850;4.446;2022-11-04T08:18:27;8.43;;;2.97;;
23782;SDS011;12071;50.850;4.446;2022-11-04T08:20:52;13.68;;;3.80;;
23782;SDS011;12071;50.850;4.446;2022-11-04T08:23:18;12.23;;;3.40;;
23782;SDS011;12071;50.850;4.446;2022-11-04T08:25:44;11.27;;;2.92;;
23782;SDS011;12071;50.850;4.446;2022-11-04T08:28:10;8.60;;;2.50;;
23782;SDS011;12071;50.850;4.446;2022-11-04T08:30:41;13.50;;;2.83;;
23782;SDS011;12071;50.850;4.446;2022-11-04T08:33:20;13.55;;;3.13;;
23782;SDS011;12071;50.850;4.446;2022-11-04T08:35:46;13.40;;;3.28;;
23782;SDS011;12071;50.850;4.446;2022-11-04T08:38:11;11.25;;;2.92;;
23782;SDS011;12071;50.850;4.446;2022-11-04T08:40:37;35.88;;;19.70;;
23782;SDS011;12071;50.850;4.446;2022-11-04T08:43:02;21.85;;;9.73;;
23782;SDS011;12071;50.850;4.446;2022-11-04T08:45:28;10.43;;;2.95;;
23782;SDS011;12071;50.850;4.446;2022-11-04T08:47:54;13.18;;;2.78;;
23782;SDS011;12071;50.850;4.446;2022-11-04T08:50:19;12.70;;;3.38;;
23782;SDS011;12071;50.850;4.446;2022-11-04T08:52:51;12.35;;;3.33;;
23782;SDS011;12071;50.850;4.446;2022-11-04T08:55:17;9.80;;;3.28;;
23782;SDS011;12071;50.850;4.446;2022-11-04T08:57:43;12.73;;;3.10;;
23782;SDS011;12071;50.850;4.446;2022-11-04T09:00:09;13.20;;;2.78;;
23782;SDS011;12071;50.850;4.446;2022-11-04T09:02:35;12.27;;;2.90;;
23782;SDS011;12071;50.850;4.446;2022-11-04T09:05:00;10.88;;;2.53;;
23782;SDS011;12071;50.850;4.446;2022-11-04T09:07:26;9.60;;;2.83;;
23782;SDS011;12071;50.850;4.446;2022-11-04T09:09:51;14.93;;;3.45;;
23782;SDS011;12071;50.850;4.446;2022-11-04T09:12:17;11.63;;;3.17;;
23782;SDS011;12071;50.850;4.446;2022-11-04T09:14:42;14.70;;;3.60;;
23782;SDS011;12071;50.850;4.446;2022-11-04T09:17:08;16.98;;;4.32;;
23782;SDS011;12071;50.850;4.446;2022-11-04T09:19:34;16.40;;;5.60;;
23782;SDS011;12071;50.850;4.446;2022-11-04T09:21:59;15.43;;;5.15;;
23782;SDS011;12071;50.850;4.446;2022-11-04T09:24:25;19.40;;;5.00;;
23782;SDS011;12071;50.850;4.446;2022-11-04T09:26:50;18.48;;;5.72;;
23782;SDS011;12071;50.850;4.446;2022-11-04T09:29:16;14.93;;;5.15;;
23782;SDS011;12071;50.850;4.446;2022-11-04T09:31:41;14.32;;;4.95;;
23782;SDS011;12071;50.850;4.446;2022-11-04T09:34:07;12.88;;;5.63;;
23782;SDS011;12071;50.850;4.446;2022-11-04T09:36:33;13.05;;;5.00;;
23782;SDS011;12071;50.850;4.446;2022-11-04T09:38:58;15.63;;;5.20;;
23782;SDS011;12071;50.850;4.446;2022-11-04T09:44:32;13.55;;;4.50;;
23782;SDS011;12071;50.850;4.446;2022-11-04T09:47:00;9.55;;;3.92;;
23782;SDS011;12071;50.850;4.446;2022-11-04T09:49:28;15.80;;;4.95;;
23782;SDS011;12071;50.850;4.446;2022-11-04T09:51:59;11.68;;;4.78;;
23782;SDS011;12071;50.850;4.446;2022-11-04T09:54:33;19.33;;;5.30;;
23782;SDS011;12071;50.850;4.446;2022-11-04T09:57:05;18.02;;;5.35;;
23782;SDS011;12071;50.850;4.446;2022-11-04T09:59:42;20.90;;;6.13;;
23782;SDS011;12071;50.850;4.446;2022-11-04T10:07:23;13.57;;;4.20;;
23782;SDS011;12071;50.850;4.446;2022-11-04T10:12:56;13.00;;;4.55;;
23782;SDS011;12071;50.850;4.446;2022-11-04T10:18:34;11.52;;;3.42;;
23782;SDS011;12071;50.850;4.446;2022-11-04T10:24:41;11.32;;;3.90;;
23782;SDS011;12071;50.850;4.446;2022-11-04T10:27:21;11.23;;;3.67;;
23782;SDS011;12071;50.850;4.446;2022-11-04T10:30:32;14.30;;;3.60;;
23782;SDS011;12071;50.850;4.446;2022-11-04T10:37:37;13.80;;;2.88;;
23782;SDS011;12071;50.850;4.446;2022-11-04T10:42:41;8.18;;;2.75;;
23782;SDS011;12071;50.850;4.446;2022-11-04T10:45:09;10.35;;;3.90;;
23782;SDS011;12071;50.850;4.446;2022-11-04T10:47:44;10.20;;;3.47;;
23782;SDS011;12071;50.850;4.446;2022-11-04T10:50:24;12.05;;;3.45;;
23782;SDS011;12071;50.850;4.446;2022-11-04T10:52:50;12.20;;;3.92;;
23782;SDS011;12071;50.850;4.446;2022-11-04T10:57:59;11.98;;;3.55;;
23782;SDS011;12071;50.850;4.446;2022-11-04T11:03:03;12.68;;;3.80;;
23782;SDS011;12071;50.850;4.446;2022-11-04T11:08:44;11.52;;;3.83;;
23782;SDS011;12071;50.850;4.446;2022-11-04T11:11:11;10.88;;;4.43;;
23782;SDS011;12071;50.850;4.446;2022-11-04T11:13:40;10.85;;;4.97;;
23782;SDS011;12071;50.850;4.446;2022-11-04T11:16:08;16.52;;;5.90;;
23782;SDS011;12071;50.850;4.446;2022-11-04T11:18:37;13.15;;;5.22;;
23782;SDS011;12071;50.850;4.446;2022-11-04T11:23:47;15.38;;;7.88;;
23782;SDS011;12071;50.850;4.446;2022-11-04T11:26:16;15.93;;;8.20;;
23782;SDS011;12071;50.850;4.446;2022-11-04T11:28:54;16.40;;;8.13;;
23782;SDS011;12071;50.850;4.446;2022-11-04T11:31:21;16.90;;;9.02;;
23782;SDS011;12071;50.850;4.446;2022-11-04T11:33:56;16.05;;;8.68;;
23782;SDS011;12071;50.850;4.446;2022-11-04T11:36:25;15.32;;;8.45;;
23782;SDS011;12071;50.850;4.446;2022-11-04T11:39:01;15.95;;;8.18;;
23782;SDS011;12071;50.850;4.446;2022-11-04T11:46:57;14.77;;;9.35;;
23782;SDS011;12071;50.850;4.446;2022-11-04T11:49:33;12.20;;;8.95;;
23782;SDS011;12071;50.850;4.446;2022-11-04T11:54:52;15.73;;;7.70;;
23782;SDS011;12071;50.850;4.446;2022-11-04T12:00:05;11.50;;;5.45;;
23782;SDS011;12071;50.850;4.446;2022-11-04T12:05:14;12.60;;;5.53;;
23782;SDS011;12071;50.850;4.446;2022-11-04T12:13:17;8.82;;;5.03;;
23782;SDS011;12071;50.850;4.446;2022-11-04T12:15:51;15.77;;;6.35;;
23782;SDS011;12071;50.850;4.446;2022-11-04T12:18:42;13.68;;;5.72;;
23782;SDS011;12071;50.850;4.446;2022-11-04T12:21:17;10.05;;;5.43;;
23782;SDS011;12071;50.850;4.446;2022-11-04T12:26:32;16.20;;;6.63;;
23782;SDS011;12071;50.850;4.446;2022-11-04T12:29:23;13.45;;;7.05;;
23782;SDS011;12071;50.850;4.446;2022-11-04T12:32:13;12.73;;;7.97;;
23782;SDS011;12071;50.850;4.446;2022-11-04T12:40:20;17.80;;;9.40;;
23782;SDS011;12071;50.850;4.446;2022-11-04T12:43:05;19.98;;;9.18;;
23782;SDS011;12071;50.850;4.446;2022-11-04T12:45:58;16.67;;;8.77;;
23782;SDS011;12071;50.850;4.446;2022-11-04T12:48:43;16.15;;;9.13;;
23782;SDS011;12071;50.850;4.446;2022-11-04T12:57:22;13.68;;;8.80;;
23782;SDS011;12071;50.850;4.446;2022-11-04T13:08:17;13.07;;;7.07;;
23782;SDS011;12071;50.850;4.446;2022-11-04T13:13:46;15.90;;;6.55;;
23782;SDS011;12071;50.850;4.446;2022-11-04T13:16:17;14.27;;;5.78;;
23782;SDS011;12071;50.850;4.446;2022-11-04T13:18:43;14.50;;;5.63;;
23782;SDS011;12071;50.850;4.446;2022-11-04T13:21:31;10.65;;;4.65;;
23782;SDS011;12071;50.850;4.446;2022-11-04T13:26:39;11.13;;;5.30;;
23782;SDS011;12071;50.850;4.446;2022-11-04T13:29:06;16.02;;;6.10;;
23782;SDS011;12071;50.850;4.446;2022-11-04T13:37:17;17.73;;;8.52;;
23782;SDS011;12071;50.850;4.446;2022-11-04T13:39:45;17.80;;;10.18;;
23782;SDS011;12071;50.850;4.446;2022-11-04T13:45:12;13.10;;;8.65;;
23782;SDS011;12071;50.850;4.446;2022-11-04T13:50:27;17.17;;;9.90;;
23782;SDS011;12071;50.850;4.446;2022-11-04T13:52:56;15.27;;;9.25;;
23782;SDS011;12071;50.850;4.446;2022-11-04T13:55:22;13.48;;;8.98;;
23782;SDS011;12071;50.850;4.446;2022-11-04T13:57:50;15.88;;;9.65;;
23782;SDS011;12071;50.850;4.446;2022-11-04T14:00:20;16.83;;;9.63;;
23782;SDS011;12071;50.850;4.446;2022-11-04T14:02:51;12.80;;;8.52;;
23782;SDS011;12071;50.850;4.446;2022-11-04T14:18:36;12.07;;;5.05;;
23782;SDS011;12071;50.850;4.446;2022-11-04T14:21:10;8.70;;;5.10;;
23782;SDS011;12071;50.850;4.446;2022-11-04T14:23:37;8.55;;;4.45;;
23782;SDS011;12071;50.850;4.446;2022-11-04T14:26:17;9.20;;;4.13;;
23782;SDS011;12071;50.850;4.446;2022-11-04T14:28:46;8.38;;;4.05;;
23782;SDS011;12071;50.850;4.446;2022-11-04T14:31:59;10.23;;;4.25;;
23782;SDS011;12071;50.850;4.446;2022-11-04T14:34:26;8.05;;;4.15;;
23782;SDS011;12071;50.850;4.446;2022-11-04T14:36:58;7.35;;;4.20;;
23782;SDS011;12071;50.850;4.446;2022-11-04T14:39:30;11.43;;;4.15;;
23782;SDS011;12071;50.850;4.446;2022-11-04T14:42:03;6.82;;;2.20;;
23782;SDS011;12071;50.850;4.446;2022-11-04T14:44:31;2.28;;;1.30;;
23782;SDS011;12071;50.850;4.446;2022-11-04T14:47:18;6.45;;;1.60;;
23782;SDS011;12071;50.850;4.446;2022-11-04T14:50:34;1.95;;;0.93;;
23782;SDS011;12071;50.850;4.446;2022-11-04T14:57:47;3.95;;;1.00;;
23782;SDS011;12071;50.850;4.446;2022-11-04T15:02:57;3.10;;;0.75;;
23782;SDS011;12071;50.850;4.446;2022-11-04T15:05:30;3.40;;;0.70;;
23782;SDS011;12071;50.850;4.446;2022-11-04T15:08:00;1.92;;;0.90;;
23782;SDS011;12071;50.850;4.446;2022-11-04T15:10:42;3.00;;;0.90;;
23782;SDS011;12071;50.850;4.446;2022-11-04T15:15:42;1.40;;;0.60;;
23782;SDS011;12071;50.850;4.446;2022-11-04T15:18:16;1.50;;;0.52;;
23782;SDS011;12071;50.850;4.446;2022-11-04T15:20:51;1.92;;;0.70;;
23782;SDS011;12071;50.850;4.446;2022-11-04T15:23:30;2.63;;;0.85;;
23782;SDS011;12071;50.850;4.446;2022-11-04T15:26:29;1.50;;;0.68;;
23782;SDS011;12071;50.850;4.446;2022-11-04T15:28:55;2.90;;;1.00;;
23782;SDS011;12071;50.850;4.446;2022-11-04T15:31:24;1.67;;;0.68;;
23782;SDS011;12071;50.850;4.446;2022-11-04T15:33:58;4.93;;;0.82;;
23782;SDS011;12071;50.850;4.446;2022-11-04T15:36:34;3.38;;;0.60;;
23782;SDS011;12071;50.850;4.446;2022-11-04T15:39:05;2.45;;;0.90;;
23782;SDS011;12071;50.850;4.446;2022-11-04T15:41:36;3.85;;;1.05;;
23782;SDS011;12071;50.850;4.446;2022-11-04T15:44:24;4.57;;;1.10;;
23782;SDS011;12071;50.850;4.446;2022-11-04T15:46:53;3.03;;;0.73;;
23782;SDS011;12071;50.850;4.446;2022-11-04T15:49:21;3.45;;;0.70;;
23782;SDS011;12071;50.850;4.446;2022-11-04T15:51:57;4.22;;;0.90;;
23782;SDS011;12071;50.850;4.446;2022-11-04T15:54:32;4.78;;;0.90;;
23782;SDS011;12071;50.850;4.446;2022-11-04T15:57:02;3.03;;;1.02;;
23782;SDS011;12071;50.850;4.446;2022-11-04T15:59:36;1.48;;;0.80;;
23782;SDS011;12071;50.850;4.446;2022-11-04T16:02:03;3.85;;;0.90;;
23782;SDS011;12071;50.850;4.446;2022-11-04T16:04:30;3.22;;;0.90;;
23782;SDS011;12071;50.850;4.446;2022-11-04T16:12:29;4.75;;;0.90;;
23782;SDS011;12071;50.850;4.446;2022-11-04T16:14:59;9.43;;;1.20;;
23782;SDS011;12071;50.850;4.446;2022-11-04T16:17:26;2.35;;;1.02;;
23782;SDS011;12071;50.850;4.446;2022-11-04T16:20:00;3.13;;;1.10;;
23782;SDS011;12071;50.850;4.446;2022-11-04T16:22:29;7.43;;;1.70;;
23782;SDS011;12071;50.850;4.446;2022-11-04T16:24:58;4.15;;;1.20;;
23782;SDS011;12071;50.850;4.446;2022-11-04T16:27:25;2.63;;;0.88;;
23782;SDS011;12071;50.850;4.446;2022-11-04T16:29:56;5.18;;;1.20;;
23782;SDS011;12071;50.850;4.446;2022-11-04T16:32:44;5.07;;;1.23;;
23782;SDS011;12071;50.850;4.446;2022-11-04T16:35:13;8.70;;;1.25;;
23782;SDS011;12071;50.850;4.446;2022-11-04T16:37:45;2.80;;;1.10;;
23782;SDS011;12071;50.850;4.446;2022-11-04T16:40:12;4.57;;;1.40;;
23782;SDS011;12071;50.850;4.446;2022-11-04T16:42:38;6.53;;;1.33;;
23782;SDS011;12071;50.850;4.446;2022-11-04T16:45:04;5.30;;;1.35;;
23782;SDS011;12071;50.850;4.446;2022-11-04T16:47:34;6.13;;;1.55;;
23782;SDS011;12071;50.850;4.446;2022-11-04T16:50:05;4.72;;;1.38;;
23782;SDS011;12071;50.850;4.446;2022-11-04T16:52:39;7.43;;;1.58;;
23782;SDS011;12071;50.850;4.446;2022-11-04T16:55:05;5.50;;;1.38;;
23782;SDS011;12071;50.850;4.446;2022-11-04T16:57:31;4.30;;;1.60;;
23782;SDS011;12071;50.850;4.446;2022-11-04T16:59:56;3.72;;;1.58;;
23782;SDS011;12071;50.850;4.446;2022-11-04T17:02:26;4.47;;;1.55;;
23782;SDS011;12071;50.850;4.446;2022-11-04T17:04:54;10.98;;;2.05;;
23782;SDS011;12071;50.850;4.446;2022-11-04T17:07:20;6.22;;;1.48;;
23782;SDS011;12071;50.850;4.446;2022-11-04T17:09:46;3.13;;;1.40;;
23782;SDS011;12071;50.850;4.446;2022-11-04T17:12:12;4.88;;;1.73;;
23782;SDS011;12071;50.850;4.446;2022-11-04T17:14:37;6.65;;;1.98;;
23782;SDS011;12071;50.850;4.446;2022-11-04T17:17:03;5.95;;;2.50;;
23782;SDS011;12071;50.850;4.446;2022-11-04T17:19:30;5.95;;;1.80;;
23782;SDS011;12071;50.850;4.446;2022-11-04T17:21:56;3.75;;;1.70;;
23782;SDS011;12071;50.850;4.446;2022-11-04T17:24:23;5.45;;;1.73;;
23782;SDS011;12071;50.850;4.446;2022-11-04T17:26:48;6.13;;;1.80;;
23782;SDS011;12071;50.850;4.446;2022-11-04T17:29:14;6.00;;;1.42;;
23782;SDS011;12071;50.850;4.446;2022-11-04T17:31:40;5.43;;;1.90;;
23782;SDS011;12071;50.850;4.446;2022-11-04T17:34:05;11.25;;;2.35;;
23782;SDS011;12071;50.850;4.446;2022-11-04T17:36:32;6.78;;;2.03;;
23782;SDS011;12071;50.850;4.446;2022-11-04T17:38:59;7.25;;;2.13;;
23782;SDS011;12071;50.850;4.446;2022-11-04T17:41:24;3.40;;;1.73;;